createdAt,value
2023-05-06T00:12:31.928Z,8.53
2023-05-06T00:27:33.813Z,8.80
2023-05-06T00:42:35.923Z,9.87
2023-05-06T00:57:37.969Z,7.73
2023-05-06T01:13:01.338Z,9.17
2023-05-06T01:28:03.366Z,8.00
2023-05-06T01:43:06.628Z,10.67
2023-05-06T01:58:08.366Z,8.70
2023-05-06T02:13:10.899Z,8.73
2023-05-06T02:28:12.742Z,6.97
2023-05-06T02:43:14.552Z,7.73
2023-05-06T02:58:16.506Z,9.03
2023-05-06T03:13:18.319Z,7.47
2023-05-06T03:28:20.141Z,8.00
2023-05-06T03:43:21.882Z,6.57
2023-05-06T03:58:23.671Z,6.73
2023-05-06T04:13:25.535Z,8.13
2023-05-06T04:28:27.356Z,10.50
2023-05-06T04:43:29.108Z,8.67
2023-05-06T04:58:30.931Z,9.47
2023-05-06T05:28:49.058Z,7.27
2023-05-06T05:43:50.956Z,8.20
2023-05-06T05:58:53.702Z,8.00
2023-05-06T06:13:55.807Z,8.57
2023-05-06T06:29:00.718Z,10.07
2023-05-06T06:44:02.555Z,11.20
2023-05-06T06:59:04.405Z,12.07
2023-05-06T07:14:07.009Z,9.97
2023-05-06T07:29:08.780Z,8.30
2023-05-06T07:44:10.922Z,6.70
2023-05-06T07:59:12.681Z,8.03
2023-05-06T08:14:14.521Z,10.33
2023-05-06T08:29:16.346Z,7.07
2023-05-06T08:44:19.813Z,8.10
2023-05-06T08:59:27.837Z,6.63
2023-05-06T09:14:29.625Z,7.10
2023-05-06T09:29:31.520Z,5.80
2023-05-06T09:44:33.406Z,5.47
2023-05-06T09:59:36.462Z,6.03
2023-05-06T10:14:38.721Z,5.40
2023-05-06T10:29:42.771Z,8.20
2023-05-06T10:44:58.214Z,5.90
2023-05-06T11:00:00.158Z,5.43
2023-05-06T11:15:39.952Z,4.27
2023-05-06T11:30:55.090Z,4.03
2023-05-06T11:45:59.276Z,3.90
2023-05-06T12:01:03.886Z,5.23
2023-05-06T12:16:06.991Z,4.37
2023-05-06T12:31:28.984Z,4.00
2023-05-06T12:46:30.878Z,4.10
2023-05-06T13:01:32.793Z,4.37
2023-05-06T13:16:35.422Z,4.57
2023-05-06T13:31:37.287Z,4.17
2023-05-06T13:46:39.145Z,4.50
2023-05-06T14:01:41.647Z,4.00
2023-05-06T14:16:43.497Z,3.87
2023-05-06T14:31:45.290Z,3.80
2023-05-06T15:35:13.711Z,3.93
2023-05-06T17:59:11.428Z,4.90
2023-05-06T18:14:13.439Z,5.70
2023-05-06T18:29:15.323Z,7.27
2023-05-06T18:44:17.144Z,9.10
2023-05-06T18:59:19.783Z,7.43
2023-05-06T19:14:23.638Z,7.07
2023-05-06T19:29:27.247Z,5.77
2023-05-06T19:44:29.113Z,6.87
2023-05-06T19:59:30.863Z,6.00
2023-05-06T20:15:20.783Z,5.33
2023-05-06T20:30:57.667Z,4.70
2023-05-06T20:46:25.684Z,4.40
2023-05-06T22:07:58.105Z,4.60
2023-05-06T22:39:45.586Z,4.80
2023-05-06T23:43:00.988Z,11.20
